ETAR

Ramstein Air Base Airport

Ramstein, Germany
METAR ETAR 140056Z 03011KT 9999 OVC033 00/M03 A3004 RMK AO2A SLP189 $
Observed Flight Rules
Dec-14 @ 00:56 UTC (18 minutes ago) Visual Flight Rules
Wind Visibility Clouds
30° at 11 knots 10,000+ meters
  • Overcast at 3,300' AGL
Temperatures Readings
Current 0°C / 32°F
Dewpoint -3°C / 27°F
Humidity 80%
Altimeter 30.04" Hg
Pressure 1018.9 hPa
Elevation 238
METAR ETAR 140056Z 03011KT 9999 OVC033 00/M03 A3004 RMK AO2A SLP189 $
Observed Flight Rules
Dec-14 @ 00:56 UTC
(18 minutes ago)
VFR
Wind Visibility
30° at 11 knots 10,000+ meters
Clouds
  • Overcast at 3,300' AGL
Temperature Dewpoint
0°C / 32°F -3°C / 27°F
Humidity Altimeter Pressure
80% 30.04" Hg 1018.9 hPa